createdAt,value
2018-09-24T00:00:35.496Z,9.60
2018-09-24T00:01:35.509Z,9.58
2018-09-24T00:02:35.522Z,9.56
2018-09-24T00:03:35.541Z,9.50
2018-09-24T00:04:35.560Z,9.56
2018-09-24T00:05:35.568Z,9.57
2018-09-24T00:06:35.585Z,9.48
2018-09-24T00:07:35.594Z,9.52
2018-09-24T00:08:35.613Z,9.48
2018-09-24T00:09:35.626Z,9.40
2018-09-24T00:10:35.647Z,9.43
2018-09-24T00:11:35.659Z,9.45
2018-09-24T00:12:35.678Z,9.48
2018-09-24T00:13:35.690Z,9.40
2018-09-24T00:14:35.697Z,9.49
2018-09-24T00:15:35.722Z,9.43
2018-09-24T00:16:35.728Z,9.43
2018-09-24T00:17:35.744Z,9.42
2018-09-24T00:18:35.764Z,9.39
2018-09-24T00:19:35.774Z,9.30
2018-09-24T00:20:35.790Z,9.39
2018-09-24T00:21:35.799Z,9.32
2018-09-24T00:22:35.818Z,9.27
2018-09-24T00:23:35.833Z,9.24
2018-09-24T00:24:35.847Z,9.13
2018-09-24T00:25:35.861Z,9.16
2018-09-24T00:26:35.876Z,9.16
2018-09-24T00:27:35.892Z,9.20
2018-09-24T00:28:35.910Z,9.25
2018-09-24T00:29:35.923Z,9.23
2018-09-24T00:30:35.933Z,9.23
2018-09-24T00:31:35.947Z,9.23
2018-09-24T00:32:35.968Z,9.23
2018-09-24T00:33:35.979Z,9.25
2018-09-24T00:34:35.992Z,9.23
2018-09-24T00:35:36.009Z,9.20
2018-09-24T00:36:36.022Z,9.12
2018-09-24T00:37:36.036Z,9.16
2018-09-24T00:38:36.049Z,9.10
2018-09-24T00:39:36.071Z,9.15
2018-09-24T00:40:36.084Z,9.15
2018-09-24T00:41:36.095Z,9.15
2018-09-24T00:42:36.113Z,9.15
2018-09-24T00:43:36.121Z,9.13
2018-09-24T00:44:36.137Z,9.13
2018-09-24T00:45:36.159Z,9.04
2018-09-24T00:46:36.167Z,9.12
2018-09-24T00:47:36.181Z,9.02
2018-09-24T00:48:36.196Z,9.06
2018-09-24T00:49:36.216Z,9.01
2018-09-24T00:50:36.224Z,9.04
2018-09-24T00:51:36.240Z,9.06
2018-09-24T00:52:36.265Z,8.94
2018-09-24T00:53:36.274Z,8.91
2018-09-24T00:54:36.282Z,8.96
2018-09-24T00:55:36.298Z,8.91
2018-09-24T00:56:36.317Z,8.94
2018-09-24T00:57:36.323Z,9.01
2018-09-24T00:58:36.342Z,8.87
2018-09-24T00:59:36.356Z,8.96
2018-09-24T01:00:36.373Z,8.94
2018-09-24T01:01:36.386Z,8.88
2018-09-24T01:02:36.402Z,8.84
2018-09-24T01:03:36.417Z,8.91
2018-09-24T01:04:36.429Z,8.78
2018-09-24T01:05:36.444Z,8.76
2018-09-24T01:06:36.461Z,8.69
2018-09-24T01:07:36.469Z,8.69
2018-09-24T01:08:36.486Z,8.75
2018-09-24T01:09:36.506Z,8.72
2018-09-24T01:10:36.513Z,8.72
2018-09-24T01:11:36.527Z,8.83
2018-09-24T01:12:36.547Z,8.78
2018-09-24T01:13:36.556Z,8.84
2018-09-24T01:14:36.572Z,8.86
2018-09-24T01:15:36.589Z,8.78
2018-09-24T01:16:36.601Z,8.72
2018-09-24T01:17:36.616Z,8.76
2018-09-24T01:18:36.634Z,8.69
2018-09-24T01:19:36.645Z,8.68
2018-09-24T01:20:36.663Z,8.62
2018-09-24T01:21:36.677Z,8.62
2018-09-24T01:22:36.691Z,8.63
2018-09-24T01:23:36.709Z,8.54
2018-09-24T01:24:36.720Z,8.54
2018-09-24T01:25:36.729Z,8.54
2018-09-24T01:26:36.750Z,8.44
2018-09-24T01:27:36.760Z,8.44
2018-09-24T01:28:36.777Z,8.42
2018-09-24T01:29:36.790Z,8.47
2018-09-24T01:30:36.806Z,8.30
2018-09-24T01:31:36.819Z,8.30
2018-09-24T01:32:36.837Z,8.37
2018-09-24T01:33:36.848Z,8.29
2018-09-24T01:34:36.864Z,8.28
2018-09-24T01:35:36.880Z,8.29
2018-09-24T01:36:36.892Z,8.25
2018-09-24T01:37:36.904Z,8.25
2018-09-24T01:38:36.922Z,8.20
2018-09-24T01:39:36.935Z,8.30
2018-09-24T01:40:36.953Z,8.29
2018-09-24T01:41:36.964Z,8.26
2018-09-24T01:42:36.975Z,8.22
2018-09-24T01:43:37.005Z,8.28
2018-09-24T01:44:37.013Z,8.15
2018-09-24T01:45:37.020Z,8.28
2018-09-24T01:46:37.037Z,8.20
2018-09-24T01:47:37.047Z,8.21
2018-09-24T01:48:37.067Z,8.17
2018-09-24T01:49:37.079Z,8.26
2018-09-24T01:50:37.091Z,8.22
2018-09-24T01:51:37.103Z,8.21
2018-09-24T01:52:37.120Z,8.28
2018-09-24T01:53:37.135Z,8.21
2018-09-24T01:54:37.154Z,8.25
2018-09-24T01:55:37.167Z,8.20
2018-09-24T01:56:37.177Z,8.26
2018-09-24T01:57:37.190Z,8.22
2018-09-24T01:58:37.207Z,8.26
2018-09-24T01:59:37.222Z,8.26
2018-09-24T02:00:37.233Z,8.26
2018-09-24T02:01:37.256Z,8.25
2018-09-24T02:02:37.266Z,8.21
2018-09-24T02:03:37.277Z,8.18
2018-09-24T02:04:37.293Z,8.22
2018-09-24T02:05:37.311Z,8.12
2018-09-24T02:06:37.319Z,8.22
2018-09-24T02:07:37.350Z,8.20
2018-09-24T02:08:37.350Z,8.22
2018-09-24T02:09:37.364Z,8.25
2018-09-24T02:10:37.374Z,8.20
2018-09-24T02:11:37.391Z,8.21
2018-09-24T02:12:37.405Z,8.18
2018-09-24T02:13:37.420Z,8.21
2018-09-24T02:14:37.433Z,8.12
2018-09-24T02:15:37.447Z,8.10
2018-09-24T02:16:37.464Z,8.00
2018-09-24T02:17:37.478Z,8.03
2018-09-24T02:18:37.489Z,8.02
2018-09-24T02:19:37.511Z,8.03
2018-09-24T02:20:37.517Z,8.00
2018-09-24T02:21:37.530Z,7.93
2018-09-24T02:22:37.543Z,7.97
2018-09-24T02:23:37.558Z,7.97
2018-09-24T02:24:37.576Z,8.02
2018-09-24T02:25:37.590Z,7.97
2018-09-24T02:26:37.600Z,7.92
2018-09-24T02:27:37.621Z,7.89
2018-09-24T02:28:37.632Z,7.84
2018-09-24T02:29:37.644Z,7.89
2018-09-24T02:30:37.659Z,7.77
2018-09-24T02:31:37.675Z,7.75
2018-09-24T02:32:37.688Z,7.81
2018-09-24T02:33:37.700Z,7.79
2018-09-24T02:34:37.715Z,7.85
2018-09-24T02:35:37.729Z,7.81
2018-09-24T02:36:37.745Z,7.79
2018-09-24T02:37:37.760Z,7.77
2018-09-24T02:38:37.769Z,7.93
2018-09-24T02:39:37.786Z,7.92
2018-09-24T02:40:37.797Z,7.82
2018-09-24T02:41:37.864Z,7.74
2018-09-24T02:42:37.830Z,7.89
2018-09-24T02:43:37.851Z,7.85
2018-09-24T02:44:37.853Z,7.82
2018-09-24T02:45:37.871Z,7.81
2018-09-24T02:46:37.888Z,7.78
2018-09-24T02:47:37.895Z,7.87
2018-09-24T02:48:37.916Z,7.71
2018-09-24T02:49:37.927Z,7.71
2018-09-24T02:50:37.947Z,7.69
2018-09-24T02:51:37.961Z,7.66
2018-09-24T02:52:37.973Z,7.71
2018-09-24T02:53:37.983Z,7.71
2018-09-24T02:54:37.991Z,7.66
2018-09-24T02:55:38.011Z,7.59
2018-09-24T02:56:38.029Z,7.74
2018-09-24T02:57:38.037Z,7.75
2018-09-24T02:58:38.058Z,7.69
2018-09-24T02:59:38.065Z,7.77
2018-09-24T03:00:38.086Z,7.75
2018-09-24T03:01:38.098Z,7.71
2018-09-24T03:02:38.108Z,7.77
2018-09-24T03:03:38.123Z,7.69
2018-09-24T03:04:38.138Z,7.59
2018-09-24T03:05:38.156Z,7.67
2018-09-24T03:06:38.169Z,7.55
2018-09-24T03:07:38.177Z,7.56
2018-09-24T03:08:38.191Z,7.55
2018-09-24T03:38:09.312Z,7.62
2018-09-24T03:39:09.289Z,7.53
2018-09-24T03:41:01.211Z,7.56
2018-09-24T03:42:01.218Z,7.52
2018-09-24T03:43:53.119Z,7.52
2018-09-24T03:44:53.123Z,7.49
2018-09-24T03:46:45.549Z,7.49
2018-09-24T03:47:45.534Z,7.53
2018-09-24T03:49:37.448Z,7.56
2018-09-24T03:50:37.451Z,7.58
2018-09-24T03:52:29.381Z,7.55
2018-09-24T03:53:29.367Z,7.59
2018-09-24T03:55:21.281Z,7.67
2018-09-24T03:56:21.289Z,7.52
2018-09-24T03:58:13.224Z,7.58
2018-09-24T03:59:13.215Z,7.55
2018-09-24T04:01:05.147Z,7.50
2018-09-24T04:02:05.143Z,7.52
2018-09-24T04:03:57.056Z,7.42
2018-09-24T04:04:57.063Z,7.40
2018-09-24T04:06:48.997Z,7.40
2018-09-24T04:07:48.989Z,7.31
2018-09-24T04:09:40.949Z,7.34
2018-09-24T04:10:40.913Z,7.32
2018-09-24T04:12:32.850Z,7.32
2018-09-24T04:13:32.838Z,7.35
2018-09-24T04:15:24.748Z,7.20
2018-09-24T04:16:24.755Z,7.17
2018-09-24T04:18:16.679Z,7.16
2018-09-24T04:19:16.674Z,7.08
2018-09-24T04:21:08.596Z,7.17
2018-09-24T04:22:08.600Z,7.16
2018-09-24T04:24:00.526Z,7.27
2018-09-24T04:25:00.516Z,7.15
2018-09-24T04:26:52.456Z,7.13
2018-09-24T04:27:52.441Z,7.09
2018-09-24T04:29:44.356Z,7.08
2018-09-24T04:30:44.362Z,7.05
2018-09-24T04:32:36.292Z,7.02
2018-09-24T04:33:36.277Z,7.04
2018-09-24T04:35:28.188Z,7.04
2018-09-24T04:36:28.196Z,6.95
2018-09-24T04:38:20.165Z,6.95
2018-09-24T04:39:20.163Z,6.94
2018-09-24T04:41:12.018Z,6.87
2018-09-24T04:42:12.020Z,6.94
2018-09-24T04:44:03.959Z,6.97
2018-09-24T04:45:03.943Z,6.97
2018-09-24T04:46:55.883Z,7.04
2018-09-24T04:47:55.879Z,7.07
2018-09-24T04:49:47.786Z,7.05
2018-09-24T04:50:47.793Z,6.99
2018-09-24T04:52:39.749Z,7.05
2018-09-24T04:53:39.733Z,6.95
2018-09-24T04:55:31.681Z,6.98
2018-09-24T04:56:31.685Z,6.97
2018-09-24T04:58:23.610Z,6.99
2018-09-24T04:59:23.601Z,6.98
2018-09-24T05:01:15.510Z,6.98
2018-09-24T05:02:15.519Z,6.90
2018-09-24T05:04:07.454Z,7.04
2018-09-24T05:05:07.436Z,6.94
2018-09-24T05:06:59.370Z,7.01
2018-09-24T05:07:59.359Z,6.94
2018-09-24T05:09:51.275Z,6.90
2018-09-24T05:10:51.277Z,6.89
2018-09-24T05:12:43.205Z,6.95
2018-09-24T05:13:43.203Z,6.97
2018-09-24T05:15:36.048Z,6.94
2018-09-24T05:16:35.202Z,6.97
2018-09-24T05:18:27.057Z,7.05
2018-09-24T05:19:27.040Z,7.02
2018-09-24T05:21:18.944Z,7.04
2018-09-24T05:22:18.952Z,7.09
2018-09-24T05:24:10.889Z,7.05
2018-09-24T05:25:10.883Z,7.07
2018-09-24T05:27:02.823Z,7.17
2018-09-24T05:28:02.812Z,7.16
2018-09-24T05:29:54.773Z,7.15
2018-09-24T05:30:54.728Z,7.12
2018-09-24T05:32:46.664Z,7.19
2018-09-24T05:33:46.642Z,7.15
2018-09-24T05:35:38.550Z,7.17
2018-09-24T05:36:38.559Z,7.08
2018-09-24T05:38:30.493Z,7.08
2018-09-24T05:39:30.649Z,7.08
2018-09-24T05:41:22.408Z,7.16
2018-09-24T05:42:22.400Z,7.08
2018-09-24T05:44:14.329Z,7.13
2018-09-24T05:45:14.316Z,7.19
2018-09-24T05:47:06.243Z,7.12
2018-09-24T05:48:06.320Z,7.07
2018-09-24T05:49:58.143Z,7.01
2018-09-24T05:50:58.151Z,7.13
2018-09-24T05:52:50.094Z,7.02
2018-09-24T05:53:50.083Z,7.13
2018-09-24T05:55:41.988Z,7.07
2018-09-24T05:56:41.998Z,7.09
2018-09-24T05:58:33.967Z,7.13
2018-09-24T05:59:33.951Z,7.19
2018-09-24T06:01:25.852Z,7.23
2018-09-24T06:02:25.867Z,7.26
2018-09-24T06:04:17.815Z,7.44
2018-09-24T06:05:17.805Z,7.41
2018-09-24T06:07:09.714Z,7.44
2018-09-24T06:08:09.742Z,7.52
2018-09-24T06:10:01.657Z,7.44
2018-09-24T06:11:01.642Z,7.53
2018-09-24T06:12:53.594Z,7.66
2018-09-24T06:13:53.573Z,7.60
2018-09-24T06:15:45.487Z,7.79
2018-09-24T06:16:45.499Z,7.69
2018-09-24T06:18:37.439Z,7.92
2018-09-24T06:19:37.414Z,8.03
2018-09-24T06:21:29.327Z,8.02
2018-09-24T06:22:29.340Z,8.07
2018-09-24T06:24:21.284Z,7.99
2018-09-24T06:25:21.267Z,8.02
2018-09-24T06:27:13.183Z,8.03
2018-09-24T06:28:13.217Z,8.12
2018-09-24T06:30:05.122Z,8.32
2018-09-24T06:31:05.112Z,8.33
2018-09-24T06:32:57.065Z,8.58
2018-09-24T06:33:57.046Z,8.75
2018-09-24T06:35:48.966Z,9.25
2018-09-24T06:36:48.966Z,9.60
2018-09-24T06:38:40.918Z,9.97
2018-09-24T06:39:40.902Z,10.22
2018-09-24T06:41:32.807Z,10.56
2018-09-24T06:42:32.821Z,10.62
2018-09-24T06:44:24.773Z,10.83
2018-09-24T06:45:24.763Z,10.95
2018-09-24T06:47:16.678Z,11.14
2018-09-24T06:48:16.683Z,11.07
2018-09-24T06:50:08.613Z,11.07
2018-09-24T06:51:08.606Z,10.98
2018-09-24T06:53:00.550Z,10.96
2018-09-24T06:54:00.539Z,11.13
2018-09-24T06:55:52.488Z,10.99
2018-09-24T06:56:52.464Z,11.03
2018-09-24T06:58:44.418Z,11.10
2018-09-24T06:59:44.510Z,11.03
2018-09-24T07:01:36.325Z,10.98
2018-09-24T07:02:36.340Z,10.99
2018-09-24T07:04:28.279Z,10.88
2018-09-24T07:05:28.290Z,10.94
2018-09-24T07:07:20.180Z,10.74
2018-09-24T07:08:20.193Z,10.74
2018-09-24T07:10:12.162Z,10.47
2018-09-24T07:11:12.173Z,10.53
2018-09-24T07:13:04.079Z,10.30
2018-09-24T07:14:04.072Z,10.15
2018-09-24T07:15:55.985Z,10.26
2018-09-24T07:16:55.997Z,10.19
2018-09-24T07:18:47.936Z,10.18
2018-09-24T07:19:47.930Z,10.12
2018-09-24T07:21:39.851Z,10.09
2018-09-24T07:22:39.861Z,10.18
2018-09-24T07:24:31.817Z,10.17
2018-09-24T07:25:31.848Z,10.32
2018-09-24T07:27:23.707Z,10.26
2018-09-24T07:28:23.993Z,10.32
2018-09-24T07:30:15.713Z,10.39
2018-09-24T07:31:15.680Z,10.42
2018-09-24T07:33:07.638Z,10.52
2018-09-24T07:34:07.614Z,10.65
2018-09-24T07:35:59.528Z,10.73
2018-09-24T07:36:59.538Z,10.81
2018-09-24T07:38:51.481Z,10.92
2018-09-24T07:39:51.474Z,10.99
2018-09-24T07:41:43.420Z,11.03
2018-09-24T07:42:43.427Z,11.13
2018-09-24T07:44:35.358Z,11.27
2018-09-24T07:45:35.349Z,11.31
2018-09-24T07:47:27.270Z,11.36
2018-09-24T07:48:27.267Z,11.52
2018-09-24T07:50:19.208Z,11.61
2018-09-24T07:51:19.187Z,11.64
2018-09-24T07:53:11.152Z,11.68
2018-09-24T07:54:11.160Z,11.72
2018-09-24T07:56:03.099Z,11.82
2018-09-24T07:57:03.081Z,11.94
2018-09-24T07:58:55.138Z,12.12
2018-09-24T07:59:55.126Z,12.08
2018-09-24T08:01:47.053Z,12.31
2018-09-24T08:02:47.059Z,12.45
2018-09-24T08:04:38.996Z,12.70
2018-09-24T08:05:38.994Z,12.85
2018-09-24T08:07:30.964Z,13.12
2018-09-24T08:08:30.914Z,13.09
2018-09-24T08:10:22.864Z,13.24
2018-09-24T08:11:22.837Z,13.20
2018-09-24T08:13:14.888Z,13.29
2018-09-24T08:14:14.787Z,13.29
2018-09-24T08:16:06.707Z,13.69
2018-09-24T08:17:06.855Z,13.88
2018-09-24T08:18:58.645Z,14.13
2018-09-24T08:19:58.623Z,14.12
2018-09-24T08:21:50.576Z,14.29
2018-09-24T08:22:50.584Z,14.35
2018-09-24T08:23:50.646Z,14.44
2018-09-24T08:24:50.700Z,14.47
2018-09-24T08:25:50.627Z,14.46
2018-09-24T08:26:50.659Z,14.57
2018-09-24T08:27:50.675Z,14.69
2018-09-24T08:28:50.696Z,14.64
2018-09-24T08:29:50.856Z,14.72
2018-09-24T08:30:50.738Z,14.68
2018-09-24T08:31:50.733Z,14.56
2018-09-24T08:32:50.751Z,14.56
2018-09-24T08:33:50.770Z,14.50
2018-09-24T08:34:50.792Z,14.46
2018-09-24T08:35:50.813Z,14.42
2018-09-24T08:36:50.834Z,14.29
2018-09-24T08:37:50.857Z,14.29
2018-09-24T08:38:50.883Z,14.25
2018-09-24T08:39:50.889Z,14.35
2018-09-24T08:40:50.903Z,14.17
2018-09-24T08:41:50.926Z,14.13
2018-09-24T08:42:50.940Z,14.17
2018-09-24T08:43:50.958Z,14.09
2018-09-24T08:44:50.977Z,14.01
2018-09-24T08:45:51.004Z,14.10
2018-09-24T08:46:51.015Z,14.14
2018-09-24T08:47:51.025Z,14.01
2018-09-24T08:48:51.048Z,13.99
2018-09-24T08:49:51.065Z,13.99
2018-09-24T08:50:51.092Z,13.98
2018-09-24T08:51:51.102Z,13.99
2018-09-24T08:52:51.115Z,13.98
2018-09-24T08:53:51.133Z,14.01
2018-09-24T08:54:51.155Z,13.96
2018-09-24T08:55:51.183Z,13.96
2018-09-24T08:56:51.244Z,13.99
2018-09-24T08:57:51.211Z,13.96
2018-09-24T08:58:51.233Z,14.01
2018-09-24T08:59:51.241Z,14.07
2018-09-24T09:00:51.260Z,14.13
2018-09-24T09:01:51.283Z,14.12
2018-09-24T09:02:51.374Z,14.28
2018-09-24T09:03:51.341Z,14.20
2018-09-24T09:04:51.339Z,14.27
2018-09-24T09:05:51.386Z,14.27
2018-09-24T09:06:51.392Z,14.35
2018-09-24T09:07:51.386Z,14.29
2018-09-24T09:08:51.406Z,14.28
2018-09-24T09:09:51.430Z,14.21
2018-09-24T09:10:51.449Z,14.28
2018-09-24T09:11:51.461Z,14.12
2018-09-24T09:12:51.481Z,14.20
2018-09-24T09:13:51.505Z,14.19
2018-09-24T09:14:51.516Z,14.17
2018-09-24T09:15:51.809Z,14.17
2018-09-24T09:16:51.553Z,14.13
2018-09-24T09:17:51.572Z,13.94
2018-09-24T09:18:51.587Z,13.87
2018-09-24T09:19:51.605Z,13.94
2018-09-24T09:20:51.671Z,13.74
2018-09-24T09:21:51.640Z,13.76
2018-09-24T09:22:51.667Z,13.80
2018-09-24T09:23:51.728Z,13.87
2018-09-24T09:24:51.697Z,13.92
2018-09-24T09:25:51.711Z,14.01
2018-09-24T09:26:51.731Z,14.13
2018-09-24T09:27:51.753Z,14.13
2018-09-24T09:28:51.762Z,14.19
2018-09-24T09:29:51.782Z,14.25
2018-09-24T09:30:51.812Z,14.28
2018-09-24T09:31:51.818Z,14.34
2018-09-24T09:32:51.835Z,14.38
2018-09-24T09:33:51.861Z,14.35
2018-09-24T09:34:51.871Z,14.28
2018-09-24T09:35:51.890Z,14.24
2018-09-24T09:36:51.906Z,14.14
2018-09-24T09:37:51.928Z,14.34
2018-09-24T09:38:51.948Z,14.39
2018-09-24T09:39:51.963Z,14.46
2018-09-24T09:40:51.981Z,14.38
2018-09-24T09:41:52.002Z,14.56
2018-09-24T09:42:52.036Z,14.61
2018-09-24T09:43:52.037Z,14.60
2018-09-24T09:44:52.053Z,14.72
2018-09-24T09:45:52.085Z,14.71
2018-09-24T09:46:52.139Z,14.74
2018-09-24T09:47:52.104Z,14.78
2018-09-24T09:48:52.124Z,14.78
2018-09-24T09:49:52.146Z,14.78
2018-09-24T09:50:52.156Z,14.71
2018-09-24T09:51:52.177Z,14.80
2018-09-24T09:52:52.205Z,14.84
2018-09-24T09:53:52.211Z,14.84
2018-09-24T09:54:52.228Z,14.72
2018-09-24T09:55:52.247Z,14.90
2018-09-24T09:56:52.263Z,14.88
2018-09-24T09:57:52.294Z,14.95
2018-09-24T09:58:52.301Z,14.86
2018-09-24T09:59:52.357Z,14.94
2018-09-24T10:00:52.336Z,15.02
2018-09-24T10:01:52.355Z,15.01
2018-09-24T10:02:52.376Z,15.15
2018-09-24T10:03:52.411Z,15.24
2018-09-24T10:04:52.459Z,15.28
2018-09-24T10:05:52.429Z,15.39
2018-09-24T10:06:52.445Z,15.51
2018-09-24T10:07:52.460Z,15.52
2018-09-24T10:08:52.495Z,15.72
2018-09-24T10:09:52.515Z,15.68
2018-09-24T10:10:52.522Z,15.78
2018-09-24T10:11:52.541Z,15.74
2018-09-24T10:12:52.560Z,15.92
2018-09-24T10:13:52.573Z,15.99
2018-09-24T10:14:52.594Z,15.88
2018-09-24T10:15:52.613Z,15.86
2018-09-24T10:16:52.626Z,16.11
2018-09-24T10:17:52.651Z,16.16
2018-09-24T10:18:52.681Z,16.25
2018-09-24T10:19:52.688Z,16.23
2018-09-24T10:20:52.702Z,16.33
2018-09-24T10:21:52.721Z,16.18
2018-09-24T10:22:52.738Z,16.00
2018-09-24T10:23:52.760Z,15.94
2018-09-24T10:24:52.773Z,15.81
2018-09-24T10:25:52.795Z,15.60
2018-09-24T10:26:52.808Z,15.42
2018-09-24T10:27:52.836Z,15.42
2018-09-24T10:28:52.848Z,15.38
2018-09-24T10:29:52.870Z,15.39
2018-09-24T10:30:52.888Z,15.51
2018-09-24T10:31:52.904Z,15.39
2018-09-24T10:32:52.933Z,15.31
2018-09-24T10:33:52.944Z,15.28
2018-09-24T10:34:52.960Z,15.30
2018-09-24T10:35:52.979Z,15.33
2018-09-24T10:36:53.009Z,15.43
2018-09-24T10:37:53.013Z,15.56
2018-09-24T10:38:53.537Z,15.60
2018-09-24T10:39:53.545Z,15.76
2018-09-24T10:40:53.151Z,15.81
2018-09-24T10:41:53.151Z,15.66
2018-09-24T10:42:53.169Z,15.64
2018-09-24T10:43:53.278Z,15.63
2018-09-24T10:44:53.158Z,15.79
2018-09-24T10:45:53.184Z,15.86
2018-09-24T10:46:53.263Z,16.03
2018-09-24T10:47:53.295Z,16.27
2018-09-24T10:48:54.078Z,16.44
2018-09-24T10:49:53.339Z,16.37
2018-09-24T10:50:53.331Z,16.50
2018-09-24T10:51:53.304Z,16.35
2018-09-24T10:52:53.383Z,16.34
2018-09-24T10:53:53.325Z,16.16
2018-09-24T10:54:53.380Z,16.03
2018-09-24T10:55:53.423Z,15.97
2018-09-24T10:56:53.463Z,16.06
2018-09-24T10:57:53.393Z,16.03
2018-09-24T10:58:53.421Z,16.04
2018-09-24T10:59:53.432Z,15.93
2018-09-24T11:00:53.468Z,16.09
2018-09-24T11:01:53.491Z,15.94
2018-09-24T11:02:53.491Z,16.06
2018-09-24T11:03:53.504Z,16.03
2018-09-24T11:04:53.630Z,16.06
2018-09-24T11:05:53.551Z,16.12
2018-09-24T11:06:53.559Z,16.18
2018-09-24T11:07:53.709Z,16.15
2018-09-24T11:08:53.593Z,16.15
2018-09-24T11:09:53.613Z,16.26
2018-09-24T11:10:53.637Z,16.26
2018-09-24T11:11:53.652Z,16.25
2018-09-24T11:12:53.677Z,16.35
2018-09-24T11:13:53.700Z,16.45
2018-09-24T11:14:53.740Z,16.37
2018-09-24T11:15:53.793Z,16.48
2018-09-24T11:16:53.848Z,16.52
2018-09-24T11:17:53.897Z,16.59
2018-09-24T11:18:53.790Z,16.62
2018-09-24T11:19:53.802Z,16.59
2018-09-24T11:20:53.835Z,16.35
2018-09-24T11:21:53.846Z,16.44
2018-09-24T11:22:53.873Z,16.48
2018-09-24T11:23:53.880Z,16.52
2018-09-24T11:24:53.897Z,16.41
2018-09-24T11:25:53.936Z,16.58
2018-09-24T11:26:53.944Z,16.56
2018-09-24T11:27:53.961Z,16.70
2018-09-24T11:28:53.983Z,16.65
2018-09-24T11:29:53.998Z,16.80
2018-09-24T11:30:54.021Z,16.86
2018-09-24T11:31:54.036Z,16.93
2018-09-24T11:32:54.057Z,16.90
2018-09-24T11:33:54.069Z,17.00
2018-09-24T11:34:54.097Z,16.99
2018-09-24T11:35:54.109Z,17.00
2018-09-24T11:36:54.139Z,17.04
2018-09-24T11:37:54.150Z,17.13
2018-09-24T11:38:54.173Z,17.10
2018-09-24T11:39:54.184Z,17.26
2018-09-24T11:40:54.210Z,17.32
2018-09-24T11:41:54.230Z,17.53
2018-09-24T11:42:54.247Z,17.74
2018-09-24T11:43:55.565Z,17.82
2018-09-24T11:44:54.281Z,17.87
2018-09-24T11:45:54.303Z,18.02
2018-09-24T11:46:54.385Z,18.00
2018-09-24T11:47:54.340Z,17.84
2018-09-24T11:48:54.373Z,17.78
2018-09-24T11:49:54.401Z,18.02
2018-09-24T11:50:54.395Z,18.15
2018-09-24T11:51:54.421Z,18.25
2018-09-24T11:52:54.443Z,18.31
2018-09-24T11:53:54.466Z,18.52
2018-09-24T11:54:54.484Z,18.50
2018-09-24T11:55:54.516Z,18.47
2018-09-24T11:56:54.531Z,18.43
2018-09-24T11:57:54.546Z,18.09
2018-09-24T11:58:54.560Z,17.81
2018-09-24T11:59:54.635Z,17.41
2018-09-24T12:00:54.847Z,17.36
2018-09-24T12:01:54.932Z,17.04
2018-09-24T12:02:54.672Z,16.90
2018-09-24T12:03:56.142Z,16.60
2018-09-24T12:04:55.022Z,16.50
2018-09-24T12:05:54.708Z,16.34
2018-09-24T12:06:54.741Z,16.16
2018-09-24T12:07:54.742Z,16.09
2018-09-24T12:08:54.755Z,15.88
2018-09-24T12:09:54.787Z,15.75
2018-09-24T12:10:54.796Z,15.56
2018-09-24T12:11:54.819Z,15.28
2018-09-24T12:12:54.834Z,14.71
2018-09-24T12:13:54.879Z,14.02
2018-09-24T12:14:54.884Z,13.24
2018-09-24T12:15:54.888Z,12.71
2018-09-24T12:16:54.914Z,12.51
2018-09-24T12:17:54.930Z,12.27
2018-09-24T12:18:54.958Z,12.23
2018-09-24T12:19:55.043Z,12.02
2018-09-24T12:20:55.035Z,11.93
2018-09-24T12:21:55.012Z,11.90
2018-09-24T12:22:55.027Z,11.77
2018-09-24T12:23:55.043Z,11.78
2018-09-24T12:24:55.055Z,11.78
2018-09-24T12:25:55.080Z,11.83
2018-09-24T12:26:55.110Z,11.70
2018-09-24T12:27:55.107Z,11.64
2018-09-24T12:28:55.181Z,11.70
2018-09-24T12:29:55.187Z,11.65
2018-09-24T12:30:55.218Z,11.71
2018-09-24T12:31:55.384Z,11.72
2018-09-24T12:32:55.278Z,11.75
2018-09-24T12:33:55.287Z,11.75
2018-09-24T12:34:55.371Z,11.78
2018-09-24T12:35:55.322Z,11.93
2018-09-24T12:36:55.279Z,11.96
2018-09-24T12:37:55.335Z,12.21
2018-09-24T12:38:55.338Z,12.33
2018-09-24T12:39:55.328Z,12.51
2018-09-24T12:40:55.396Z,12.69
2018-09-24T12:41:55.357Z,12.74
2018-09-24T12:42:56.263Z,12.78
2018-09-24T12:43:55.376Z,12.89
2018-09-24T12:44:55.496Z,12.97
2018-09-24T12:45:55.512Z,13.04
2018-09-24T12:46:55.469Z,13.02
2018-09-24T12:47:55.545Z,13.14
2018-09-24T12:48:55.457Z,13.17
2018-09-24T12:49:55.472Z,13.11
2018-09-24T12:50:55.493Z,13.04
2018-09-24T12:51:55.507Z,13.14
2018-09-24T12:52:55.532Z,13.14
2018-09-24T12:53:55.543Z,13.02
2018-09-24T12:54:55.562Z,13.03
2018-09-24T12:55:56.587Z,12.97
2018-09-24T12:56:55.592Z,13.21
2018-09-24T12:57:55.609Z,13.21
2018-09-24T12:58:55.634Z,13.33
2018-09-24T12:59:55.641Z,13.46
2018-09-24T13:00:55.661Z,13.58
2018-09-24T13:01:55.682Z,13.67
2018-09-24T13:02:55.696Z,13.79
2018-09-24T13:03:55.715Z,13.74
2018-09-24T13:04:55.880Z,13.59
2018-09-24T13:05:55.747Z,13.67
2018-09-24T13:06:55.767Z,13.71
2018-09-24T13:07:55.782Z,13.91
2018-09-24T13:08:55.792Z,13.87
2018-09-24T13:09:55.816Z,13.88
2018-09-24T13:10:55.867Z,13.99
2018-09-24T13:11:55.849Z,13.98
2018-09-24T13:12:55.866Z,14.06
2018-09-24T13:13:55.886Z,14.10
2018-09-24T13:14:55.905Z,14.09
2018-09-24T13:15:55.918Z,14.17
2018-09-24T13:16:55.934Z,14.19
2018-09-24T13:17:55.952Z,14.25
2018-09-24T13:18:55.968Z,14.28
2018-09-24T13:19:55.989Z,14.10
2018-09-24T13:20:56.011Z,14.13
2018-09-24T13:21:56.025Z,14.09
2018-09-24T13:22:56.050Z,14.04
2018-09-24T13:23:56.055Z,14.02
2018-09-24T13:24:56.076Z,13.99
2018-09-24T13:25:56.106Z,13.99
2018-09-24T13:26:56.117Z,13.99
2018-09-24T13:27:56.131Z,13.98
2018-09-24T13:28:56.148Z,14.01
2018-09-24T13:29:56.163Z,14.01
2018-09-24T13:30:56.179Z,13.98
2018-09-24T13:31:56.198Z,13.89
2018-09-24T13:32:56.223Z,13.94
2018-09-24T13:33:56.236Z,13.89
2018-09-24T13:34:56.247Z,13.83
2018-09-24T13:35:56.270Z,13.73
2018-09-24T13:36:56.283Z,13.71
2018-09-24T13:37:56.301Z,13.67
2018-09-24T13:38:56.403Z,13.74
2018-09-24T13:39:56.342Z,13.92
2018-09-24T13:40:56.356Z,14.12
2018-09-24T13:41:56.409Z,14.16
2018-09-24T13:42:56.397Z,14.21
2018-09-24T13:43:56.408Z,14.34
2018-09-24T13:44:56.427Z,14.32
2018-09-24T13:45:56.452Z,14.39
2018-09-24T13:46:56.462Z,14.46
2018-09-24T13:47:56.489Z,14.50
2018-09-24T13:48:56.501Z,14.56
2018-09-24T13:49:56.519Z,14.62
2018-09-24T13:50:56.540Z,14.71
2018-09-24T13:51:56.557Z,14.84
2018-09-24T13:52:56.571Z,14.78
2018-09-24T13:53:56.592Z,14.91
2018-09-24T13:54:56.611Z,14.88
2018-09-24T13:55:56.632Z,14.90
2018-09-24T13:56:56.636Z,14.98
2018-09-24T13:57:56.659Z,14.87
2018-09-24T13:58:56.679Z,14.83
2018-09-24T13:59:56.691Z,14.94
2018-09-24T14:00:56.715Z,14.91
2018-09-24T14:01:56.736Z,14.90
2018-09-24T14:02:56.744Z,14.93
2018-09-24T14:03:56.771Z,14.98
2018-09-24T14:04:56.780Z,15.01
2018-09-24T14:05:56.802Z,14.98
2018-09-24T14:06:56.817Z,15.09
2018-09-24T14:07:56.869Z,15.17
2018-09-24T14:08:56.848Z,15.09
2018-09-24T14:09:56.876Z,15.20
2018-09-24T14:10:56.928Z,15.21
2018-09-24T14:11:56.911Z,15.19
2018-09-24T14:12:56.927Z,15.03
2018-09-24T14:13:56.946Z,15.12
2018-09-24T14:14:56.961Z,15.08
2018-09-24T14:15:56.984Z,15.26
2018-09-24T14:16:56.992Z,15.31
2018-09-24T14:17:57.013Z,15.42
2018-09-24T14:18:57.038Z,15.43
2018-09-24T14:19:57.049Z,15.51
2018-09-24T14:20:57.087Z,15.42
2018-09-24T14:21:57.088Z,15.48
2018-09-24T14:22:57.112Z,15.63
2018-09-24T14:23:57.122Z,15.74
2018-09-24T14:24:57.139Z,15.59
2018-09-24T14:25:57.162Z,15.63
2018-09-24T14:26:57.181Z,15.59
2018-09-24T14:27:57.205Z,15.74
2018-09-24T14:28:57.224Z,15.67
2018-09-24T14:29:57.232Z,15.74
2018-09-24T14:30:57.254Z,15.88
2018-09-24T14:31:57.270Z,15.94
2018-09-24T14:32:57.287Z,16.09
2018-09-24T14:33:57.311Z,16.09
2018-09-24T14:34:57.330Z,16.11
2018-09-24T14:35:57.345Z,16.15
2018-09-24T14:36:57.363Z,16.12
2018-09-24T14:37:57.380Z,15.94
2018-09-24T14:38:57.403Z,15.82
2018-09-24T14:39:57.418Z,15.67
2018-09-24T14:40:57.435Z,15.64
2018-09-24T14:41:57.459Z,15.61
2018-09-24T14:42:57.478Z,15.72
2018-09-24T14:43:57.494Z,15.66
2018-09-24T14:44:57.513Z,15.64
2018-09-24T14:45:57.533Z,15.72
2018-09-24T14:46:57.553Z,15.70
2018-09-24T14:47:57.570Z,15.70
2018-09-24T14:48:57.594Z,15.64
2018-09-24T14:49:57.608Z,15.72
2018-09-24T14:50:57.626Z,15.76
2018-09-24T14:51:57.641Z,15.70
2018-09-24T14:52:57.671Z,15.74
2018-09-24T14:53:57.681Z,15.92
2018-09-24T14:54:57.702Z,15.99
2018-09-24T14:55:57.721Z,16.00
2018-09-24T14:56:57.739Z,16.06